createdAt,value
2018-09-01T00:00:22.740Z,90.11
2018-09-01T00:02:56.952Z,90.05
2018-09-01T00:05:30.559Z,90.00
2018-09-01T00:08:04.273Z,90.02
2018-09-01T00:10:37.916Z,90.16
2018-09-01T00:13:10.564Z,90.20
2018-09-01T00:15:44.392Z,90.24
2018-09-01T00:18:16.856Z,90.29
2018-09-01T00:20:50.661Z,90.46
2018-09-01T00:23:23.483Z,90.44
2018-09-01T00:25:56.036Z,90.51
2018-09-01T00:28:32.222Z,90.99
2018-09-01T00:31:05.096Z,91.07
2018-09-01T00:33:37.971Z,91.09
2018-09-01T00:36:10.734Z,91.16
2018-09-01T00:38:48.827Z,91.28
2018-09-01T00:41:22.776Z,91.35
2018-09-01T00:43:55.736Z,91.39
2018-09-01T00:46:29.305Z,91.22
2018-09-01T00:49:01.816Z,91.22
2018-09-01T00:51:35.451Z,91.32
2018-09-01T00:54:07.988Z,91.26
2018-09-01T00:56:40.506Z,91.40
2018-09-01T00:59:14.301Z,91.55
2018-09-01T01:01:46.856Z,91.73
2018-09-01T01:04:19.516Z,91.86
2018-09-01T01:06:52.408Z,91.95
2018-09-01T01:09:26.953Z,91.87
2018-09-01T01:12:00.481Z,91.72
2018-09-01T01:14:33.303Z,91.58
2018-09-01T01:17:09.519Z,91.51
2018-09-01T01:19:42.376Z,91.54
2018-09-01T01:22:15.959Z,91.76
2018-09-01T01:24:49.461Z,92.05
2018-09-01T01:27:22.006Z,92.21
2018-09-01T01:29:54.716Z,92.23
2018-09-01T01:32:27.161Z,92.04
2018-09-01T01:35:02.147Z,91.74
2018-09-01T01:37:35.877Z,91.72
2018-09-01T01:40:08.437Z,91.39
2018-09-01T01:42:41.149Z,91.08
2018-09-01T01:45:16.725Z,91.07
2018-09-01T01:47:49.269Z,91.05
2018-09-01T01:50:22.174Z,91.25
2018-09-01T01:52:55.302Z,91.45
2018-09-01T01:55:27.729Z,91.54
2018-09-01T01:58:00.189Z,91.74
2018-09-01T02:00:33.225Z,91.83
2018-09-01T02:03:06.085Z,91.72
2018-09-01T02:05:40.145Z,91.50
2018-09-01T02:08:13.068Z,91.53
2018-09-01T02:10:45.574Z,91.74
2018-09-01T02:13:18.365Z,91.92
2018-09-01T02:15:51.385Z,92.08
2018-09-01T02:18:23.996Z,92.29
2018-09-01T02:20:56.501Z,92.47
2018-09-01T02:23:31.540Z,92.63
2018-09-01T02:26:03.952Z,92.79
2018-09-01T02:28:36.585Z,92.92
2018-09-01T02:31:10.550Z,92.92
2018-09-01T02:33:43.172Z,92.97
2018-09-01T02:36:15.708Z,92.90
2018-09-01T02:38:49.520Z,92.80
2018-09-01T02:41:22.072Z,92.74
2018-09-01T02:43:55.772Z,92.66
2018-09-01T02:46:30.309Z,92.34
2018-09-01T02:49:03.573Z,92.03
2018-09-01T02:51:36.893Z,91.90
2018-09-01T02:54:10.825Z,91.89
2018-09-01T02:56:43.255Z,92.01
2018-09-01T02:59:15.881Z,92.21
2018-09-01T03:01:49.340Z,92.55
2018-09-01T03:04:21.899Z,92.77
2018-09-01T03:06:57.684Z,92.79
2018-09-01T03:09:30.605Z,92.69
2018-09-01T03:12:02.997Z,92.51
2018-09-01T03:14:35.481Z,92.52
2018-09-01T03:17:07.832Z,92.57
2018-09-01T03:19:40.764Z,92.64
2018-09-01T03:22:13.267Z,92.66
2018-09-01T03:24:46.105Z,92.61
2018-09-01T03:27:22.320Z,92.90
2018-09-01T03:29:54.827Z,93.04
2018-09-01T03:32:27.253Z,93.17
2018-09-01T03:35:01.207Z,93.22
2018-09-01T03:37:33.573Z,93.29
2018-09-01T03:40:06.877Z,93.41
2018-09-01T03:42:39.613Z,93.43
2018-09-01T03:45:15.140Z,93.42
2018-09-01T03:47:48.944Z,93.52
2018-09-01T03:50:25.653Z,93.65
2018-09-01T03:52:58.477Z,93.73
2018-09-01T03:55:31.833Z,93.66
2018-09-01T03:58:05.318Z,93.65
2018-09-01T04:00:37.919Z,93.86
2018-09-01T04:03:10.489Z,93.92
2018-09-01T04:05:43.337Z,93.90
2018-09-01T04:08:15.823Z,93.75
2018-09-01T04:10:51.022Z,93.68
2018-09-01T04:13:24.264Z,93.66
2018-09-01T04:15:57.072Z,93.61
2018-09-01T04:18:29.612Z,93.65
2018-09-01T04:21:02.460Z,93.61
2018-09-01T04:23:34.972Z,93.64
2018-09-01T04:26:07.876Z,93.81
2018-09-01T04:28:42.600Z,94.07
2018-09-01T04:31:15.183Z,93.92
2018-09-01T04:33:48.282Z,93.87
2018-09-01T04:36:21.176Z,93.85
2018-09-01T04:38:53.800Z,93.76
2018-09-01T04:41:26.461Z,93.73
2018-09-01T04:43:59.333Z,93.77
2018-09-01T04:46:32.087Z,93.77
2018-09-01T04:49:06.091Z,93.92
2018-09-01T04:51:39.653Z,94.17
2018-09-01T04:54:12.290Z,94.24
2018-09-01T04:56:44.943Z,94.56
2018-09-01T04:59:18.269Z,94.71
2018-09-01T05:01:51.811Z,94.89
2018-09-01T05:04:24.251Z,94.96
2018-09-01T05:06:57.347Z,95.09
2018-09-01T05:09:29.985Z,95.11
2018-09-01T05:12:02.381Z,95.07
2018-09-01T05:14:36.239Z,95.01
2018-09-01T05:17:09.180Z,95.01
2018-09-01T05:19:41.745Z,94.89
2018-09-01T05:22:14.474Z,94.82
2018-09-01T05:24:47.551Z,94.58
2018-09-01T05:27:20.118Z,94.41
2018-09-01T05:29:52.912Z,94.46
2018-09-01T05:32:25.444Z,94.48
2018-09-01T05:34:58.778Z,94.60
2018-09-01T05:37:31.775Z,94.59
2018-09-01T05:40:05.481Z,94.74
2018-09-01T05:42:38.060Z,94.79
2018-09-01T05:45:14.732Z,94.76
2018-09-01T05:47:48.099Z,94.64
2018-09-01T05:50:20.765Z,94.58
2018-09-01T05:52:56.567Z,94.65
2018-09-01T05:55:29.154Z,94.90
2018-09-01T05:58:01.640Z,94.98
2018-09-01T06:00:36.552Z,95.05
2018-09-01T06:03:08.852Z,95.10
2018-09-01T06:05:41.267Z,95.17
2018-09-01T06:08:14.505Z,95.21
2018-09-01T06:10:47.024Z,95.27
2018-09-01T06:13:19.589Z,95.37
2018-09-01T06:15:53.928Z,95.56
2018-09-01T06:18:31.064Z,95.70
2018-09-01T06:21:04.152Z,95.80
2018-09-01T06:23:36.756Z,95.85
2018-09-01T06:26:10.304Z,95.86
2018-09-01T06:28:51.484Z,95.91
2018-09-01T06:31:26.485Z,95.98
2018-09-01T06:34:00.275Z,96.01
2018-09-01T06:36:34.218Z,96.00
2018-09-01T06:39:08.439Z,96.01
2018-09-01T06:41:41.976Z,96.03
2018-09-01T06:44:14.604Z,96.13
2018-09-01T06:46:48.397Z,96.20
2018-09-01T06:49:21.406Z,96.24
2018-09-01T06:51:54.935Z,96.16
2018-09-01T06:54:30.461Z,96.18
2018-09-01T06:57:03.066Z,96.16
2018-09-01T06:59:37.439Z,96.05
2018-09-01T07:02:11.875Z,95.88
2018-09-01T07:04:45.734Z,95.71
2018-09-01T07:07:19.869Z,95.46
2018-09-01T07:09:53.611Z,95.11
2018-09-01T07:12:26.183Z,94.72
2018-09-01T07:14:58.719Z,94.04
2018-09-01T07:17:40.453Z,93.22
2018-09-01T07:20:13.864Z,92.57
2018-09-01T07:22:53.300Z,92.35
2018-09-01T07:25:26.489Z,91.76
2018-09-01T07:27:59.088Z,91.30
2018-09-01T07:30:33.351Z,90.79
2018-09-01T07:33:07.580Z,90.00
2018-09-01T07:35:44.264Z,89.16
2018-09-01T07:38:16.828Z,88.14
2018-09-01T07:40:52.340Z,88.05
2018-09-01T07:43:25.264Z,88.05
2018-09-01T07:45:58.731Z,86.53
2018-09-01T07:48:34.009Z,85.31
2018-09-01T07:51:11.904Z,86.19
2018-09-01T07:54:01.752Z,81.99
2018-09-01T07:56:36.659Z,72.76
2018-09-01T07:59:09.279Z,69.36
2018-09-01T08:01:45.069Z,67.05
2018-09-01T08:04:17.713Z,66.75
2018-09-01T08:06:51.192Z,62.55
2018-09-01T08:09:25.509Z,59.64
2018-09-01T08:11:59.748Z,58.80
2018-09-01T08:14:36.746Z,58.22
2018-09-01T08:17:10.364Z,55.99
2018-09-01T08:19:43.664Z,54.41
2018-09-01T08:22:16.779Z,54.95
2018-09-01T08:24:49.469Z,54.53
2018-09-01T08:27:25.536Z,52.11
2018-09-01T08:29:59.847Z,50.33
2018-09-01T08:32:37.338Z,49.78
2018-09-01T08:35:10.670Z,47.46
2018-09-01T08:37:43.892Z,47.41
2018-09-01T08:40:17.666Z,47.45
2018-09-01T08:42:52.143Z,46.84
2018-09-01T08:45:24.658Z,46.18
2018-09-01T08:48:00.138Z,46.10
2018-09-01T08:50:33.420Z,45.90
2018-09-01T08:53:06.836Z,45.73
2018-09-01T08:55:40.810Z,45.74
2018-09-01T08:58:15.834Z,44.92
2018-09-01T09:00:48.516Z,44.71
2018-09-01T09:03:21.404Z,43.93
2018-09-01T09:05:54.169Z,43.65
2018-09-01T09:08:26.732Z,43.63
2018-09-01T09:10:59.896Z,42.87
2018-09-01T09:13:32.587Z,43.12
2018-09-01T09:16:05.297Z,42.29
2018-09-01T09:18:42.350Z,41.69
2018-09-01T09:21:16.981Z,42.04
2018-09-01T09:23:49.647Z,41.99
2018-09-01T09:26:22.658Z,42.15
2018-09-01T09:28:57.093Z,41.04
2018-09-01T09:31:31.152Z,41.44
2018-09-01T09:34:05.171Z,39.98
2018-09-01T09:36:38.961Z,40.01
2018-09-01T09:39:13.548Z,40.08
2018-09-01T09:41:49.165Z,40.88
2018-09-01T09:45:23.524Z,40.27
2018-09-01T09:48:58.908Z,40.65
2018-09-01T09:52:34.777Z,40.75
2018-09-01T09:56:08.673Z,40.70
2018-09-01T09:59:42.645Z,39.82
2018-09-01T10:03:16.653Z,39.85
2018-09-01T10:05:50.650Z,39.42
2018-09-01T10:08:23.612Z,38.63
2018-09-01T10:10:57.143Z,37.66
2018-09-01T10:13:32.077Z,37.24
2018-09-01T10:16:06.521Z,37.49
2018-09-01T10:18:38.969Z,35.86
2018-09-01T10:21:12.763Z,35.60
2018-09-01T10:23:45.376Z,36.48
2018-09-01T10:26:17.999Z,35.07
2018-09-01T10:28:53.704Z,35.56
2018-09-01T10:31:29.305Z,33.77
2018-09-01T10:34:04.707Z,34.91
2018-09-01T10:36:39.194Z,37.01
2018-09-01T10:39:11.818Z,37.01
2018-09-01T10:41:46.922Z,36.17
2018-09-01T10:44:21.293Z,35.67
2018-09-01T10:46:53.989Z,35.11
2018-09-01T10:49:27.757Z,35.17
2018-09-01T10:52:02.160Z,34.60
2018-09-01T10:54:34.653Z,35.86
2018-09-01T10:57:07.881Z,34.08
2018-09-01T10:59:42.295Z,34.90
2018-09-01T11:02:16.639Z,35.47
2018-09-01T11:04:51.670Z,36.70
2018-09-01T11:07:28.395Z,36.00
2018-09-01T11:10:03.064Z,36.23
2018-09-01T11:12:37.978Z,35.37
2018-09-01T11:15:13.985Z,34.03
2018-09-01T11:17:48.080Z,34.50
2018-09-01T11:20:24.972Z,34.61
2018-09-01T11:22:58.678Z,34.18
2018-09-01T11:25:31.224Z,34.82
2018-09-01T11:28:04.920Z,33.41
2018-09-01T11:30:37.990Z,32.35
2018-09-01T11:33:10.644Z,32.51
2018-09-01T11:35:44.340Z,31.84
2018-09-01T11:38:17.916Z,32.45
2018-09-01T11:40:50.381Z,31.68
2018-09-01T11:43:23.155Z,31.49
2018-09-01T11:45:57.887Z,29.39
2018-09-01T11:48:32.472Z,29.55
2018-09-01T11:51:05.115Z,30.32
2018-09-01T11:53:39.552Z,31.20
2018-09-01T11:56:12.464Z,32.36
2018-09-01T11:58:47.056Z,32.78
2018-09-01T12:01:20.441Z,33.32
2018-09-01T12:03:52.995Z,32.65
2018-09-01T12:06:28.068Z,32.31
2018-09-01T12:09:03.263Z,30.97
2018-09-01T12:11:36.645Z,29.81
2018-09-01T12:14:10.754Z,30.71
2018-09-01T12:16:43.882Z,31.60
2018-09-01T12:19:16.465Z,32.85
2018-09-01T12:21:49.433Z,33.38
2018-09-01T12:24:23.387Z,34.20
2018-09-01T12:26:57.724Z,35.14
2018-09-01T12:29:30.408Z,35.73
2018-09-01T12:32:09.081Z,36.24
2018-09-01T12:34:42.461Z,36.36
2018-09-01T12:37:17.306Z,34.63
2018-09-01T12:39:49.784Z,33.39
2018-09-01T12:42:22.948Z,32.24
2018-09-01T12:44:56.399Z,32.69
2018-09-01T12:47:29.872Z,33.12
2018-09-01T12:50:03.533Z,32.84
2018-09-01T12:52:37.148Z,33.76
2018-09-01T12:55:12.754Z,34.02
2018-09-01T12:57:53.564Z,34.13
2018-09-01T13:00:35.706Z,33.37
2018-09-01T13:03:09.829Z,32.33
2018-09-01T13:05:43.812Z,32.34
2018-09-01T13:08:17.966Z,31.76
2018-09-01T13:10:51.728Z,30.81
2018-09-01T13:13:25.360Z,30.01
2018-09-01T13:15:59.202Z,29.63
2018-09-01T13:18:33.561Z,30.37
2018-09-01T13:21:07.736Z,31.44
2018-09-01T13:23:42.788Z,32.49
2018-09-01T13:26:15.901Z,33.83
2018-09-01T13:28:49.139Z,34.11
2018-09-01T13:31:22.909Z,33.70
2018-09-01T13:33:56.492Z,32.97
2018-09-01T13:36:29.367Z,32.83
2018-09-01T13:39:09.359Z,31.92
2018-09-01T13:41:43.747Z,29.81
2018-09-01T13:44:18.205Z,29.60
2018-09-01T13:46:51.214Z,29.20
2018-09-01T13:49:24.116Z,29.07
2018-09-01T13:51:57.184Z,28.08
2018-09-01T13:54:29.949Z,27.69
2018-09-01T13:57:06.632Z,27.70
2018-09-01T13:59:40.004Z,27.74
2018-09-01T14:02:12.852Z,27.27
2018-09-01T14:04:48.664Z,27.43
2018-09-01T14:07:23.415Z,27.41
2018-09-01T14:09:55.974Z,26.55
2018-09-01T14:12:29.349Z,26.89
2018-09-01T14:15:05.038Z,26.35
2018-09-01T14:17:38.803Z,26.38
2018-09-01T14:20:14.321Z,27.86
2018-09-01T14:22:47.557Z,29.01
2018-09-01T14:25:24.120Z,30.35
2018-09-01T14:28:00.315Z,30.53
2018-09-01T14:30:32.821Z,31.04
2018-09-01T14:33:08.058Z,30.40
2018-09-01T14:35:43.684Z,30.68
2018-09-01T14:38:17.230Z,30.37
2018-09-01T14:40:51.981Z,30.57
2018-09-01T14:43:25.533Z,30.34
2018-09-01T14:45:59.574Z,30.03
2018-09-01T14:48:32.736Z,30.55
2018-09-01T14:51:06.788Z,30.74
2018-09-01T14:53:40.954Z,30.59
2018-09-01T14:56:14.230Z,30.14
2018-09-01T14:58:47.148Z,30.78
2018-09-01T15:01:20.929Z,30.93
2018-09-01T15:03:53.902Z,31.07
2018-09-01T15:06:28.247Z,31.56
2018-09-01T15:09:02.244Z,32.44
2018-09-01T15:11:35.036Z,33.09
2018-09-01T15:14:11.823Z,33.45
2018-09-01T15:17:02.941Z,33.94
2018-09-01T15:19:36.233Z,34.49
2018-09-01T15:22:09.067Z,34.81
2018-09-01T15:24:47.109Z,35.74
2018-09-01T15:27:21.679Z,35.08
2018-09-01T15:29:57.628Z,34.74
2018-09-01T15:32:31.776Z,33.71
2018-09-01T15:35:06.592Z,32.17
2018-09-01T15:37:40.688Z,32.29
2018-09-01T15:40:13.234Z,32.08
2018-09-01T15:42:47.325Z,31.61
2018-09-01T15:45:23.248Z,31.86
2018-09-01T15:47:56.367Z,31.75
2018-09-01T15:50:28.832Z,32.33
2018-09-01T15:53:05.152Z,31.27
2018-09-01T15:55:40.702Z,31.45
2018-09-01T15:58:13.708Z,30.86
2018-09-01T16:00:51.625Z,30.74
2018-09-01T16:03:24.512Z,29.30
2018-09-01T16:05:57.020Z,29.33
2018-09-01T16:08:30.729Z,30.18
2018-09-01T16:11:04.002Z,30.62
2018-09-01T16:13:37.959Z,30.94
2018-09-01T16:16:11.666Z,31.16
2018-09-01T16:18:44.193Z,31.26
2018-09-01T16:21:17.416Z,31.19
2018-09-01T16:23:51.949Z,31.24
2018-09-01T16:26:24.893Z,31.67
2018-09-01T16:28:59.069Z,31.65
2018-09-01T16:31:32.917Z,31.58
2018-09-01T16:34:06.052Z,32.01
2018-09-01T16:36:42.363Z,32.33
2018-09-01T16:39:17.580Z,32.55
2018-09-01T16:41:51.889Z,32.11
2018-09-01T16:44:28.228Z,32.58
2018-09-01T16:47:01.852Z,32.22
2018-09-01T16:49:35.187Z,32.52
2018-09-01T16:52:09.370Z,32.64
2018-09-01T16:54:42.525Z,33.14
2018-09-01T16:57:16.300Z,33.32
2018-09-01T16:59:49.278Z,33.08
2018-09-01T17:02:23.817Z,33.37
2018-09-01T17:04:56.301Z,33.30
2018-09-01T17:07:30.297Z,33.65
2018-09-01T17:10:04.603Z,33.87
2018-09-01T17:12:38.305Z,33.98
2018-09-01T17:15:14.447Z,34.38
2018-09-01T17:17:47.697Z,34.91
2018-09-01T17:20:25.303Z,35.21
2018-09-01T17:23:00.559Z,35.91
2018-09-01T17:25:34.765Z,36.74
2018-09-01T17:28:09.805Z,37.71
2018-09-01T17:30:45.467Z,38.48
2018-09-01T17:33:22.627Z,39.18
2018-09-01T17:35:57.028Z,39.97
2018-09-01T17:38:32.674Z,40.58
2018-09-01T17:41:05.367Z,41.01
2018-09-01T17:43:39.229Z,41.45
2018-09-01T17:46:13.172Z,42.05
2018-09-01T17:48:51.284Z,42.62
2018-09-01T17:51:25.593Z,43.01
2018-09-01T17:53:59.629Z,43.55
2018-09-01T17:56:34.497Z,44.16
2018-09-01T17:59:07.704Z,44.62
2018-09-01T18:01:43.216Z,45.11
2018-09-01T18:04:17.302Z,45.69
2018-09-01T18:06:50.608Z,46.27
2018-09-01T18:09:24.838Z,46.63
2018-09-01T18:11:57.335Z,47.47
2018-09-01T18:14:29.987Z,48.25
2018-09-01T18:17:08.565Z,48.58
2018-09-01T18:19:46.860Z,48.88
2018-09-01T18:22:23.672Z,49.02
2018-09-01T18:24:56.778Z,49.59
2018-09-01T18:27:31.656Z,50.37
2018-09-01T18:30:12.998Z,51.12
2018-09-01T18:32:46.054Z,51.79
2018-09-01T18:35:19.478Z,52.58
2018-09-01T18:37:52.368Z,54.17
2018-09-01T18:40:25.956Z,55.68
2018-09-01T18:43:01.094Z,55.81
2018-09-01T18:45:36.084Z,56.41
2018-09-01T18:48:10.480Z,56.89
2018-09-01T18:50:43.914Z,58.55
2018-09-01T18:53:25.277Z,59.43
2018-09-01T18:55:58.636Z,59.56
2018-09-01T18:58:34.146Z,60.17
2018-09-01T19:01:08.458Z,60.53
2018-09-01T19:03:43.676Z,61.41
2018-09-01T19:06:17.825Z,62.28
2018-09-01T19:08:51.581Z,62.29
2018-09-01T19:11:36.099Z,62.45
2018-09-01T19:14:12.770Z,64.44
2018-09-01T19:16:51.286Z,65.25
2018-09-01T19:19:26.832Z,64.81
2018-09-01T19:22:01.386Z,64.82
2018-09-01T19:24:39.081Z,64.90
2018-09-01T19:27:13.657Z,65.04
2018-09-01T19:29:52.647Z,65.55
2018-09-01T19:32:26.613Z,65.77
2018-09-01T19:35:01.441Z,66.24
2018-09-01T19:37:40.367Z,67.16
2018-09-01T19:40:16.348Z,67.91
2018-09-01T19:42:50.249Z,68.89
2018-09-01T19:45:28.589Z,69.53
2018-09-01T19:48:04.348Z,71.39
2018-09-01T19:50:37.856Z,72.11
2018-09-01T19:53:16.330Z,72.26
2018-09-01T19:55:52.383Z,72.53
2018-09-01T19:58:24.939Z,73.00
2018-09-01T20:01:01.671Z,73.08
2018-09-01T20:03:39.817Z,73.10
2018-09-01T20:06:15.370Z,73.55
2018-09-01T20:09:01.261Z,73.42
2018-09-01T20:11:46.588Z,73.71
2018-09-01T20:14:20.973Z,73.89
2018-09-01T20:17:01.865Z,74.23
2018-09-01T20:19:48.042Z,74.74
2018-09-01T20:22:26.266Z,75.60
2018-09-01T20:25:00.736Z,75.83
2018-09-01T20:27:37.028Z,76.01
2018-09-01T20:30:15.759Z,77.26
2018-09-01T20:32:51.854Z,77.00
2018-09-01T20:35:33.593Z,77.01
2018-09-01T20:38:11.644Z,77.34
2018-09-01T20:40:50.872Z,77.61
2018-09-01T20:43:30.348Z,79.24
2018-09-01T20:46:05.540Z,79.80
2018-09-01T20:49:03.262Z,79.12
2018-09-01T20:51:41.204Z,79.14
2018-09-01T20:54:15.488Z,79.35
2018-09-01T20:56:49.975Z,79.46
2018-09-01T20:59:24.586Z,79.58
2018-09-01T21:02:01.890Z,79.74
2018-09-01T21:04:39.826Z,80.06
2018-09-01T21:07:14.889Z,80.05
2018-09-01T21:09:48.576Z,80.15
2018-09-01T21:12:22.454Z,80.74
2018-09-01T21:14:55.090Z,81.03
2018-09-01T21:17:30.534Z,81.25
2018-09-01T21:20:07.039Z,81.83
2018-09-01T21:22:41.521Z,82.18
2018-09-01T21:25:19.369Z,83.29
2018-09-01T21:27:54.880Z,83.58
2018-09-01T21:30:31.998Z,83.57
2018-09-01T21:33:07.116Z,83.59
2018-09-01T21:35:42.819Z,83.78
2018-09-01T21:38:17.228Z,83.99
2018-09-01T21:40:51.615Z,84.09
2018-09-01T21:43:26.952Z,84.36
2018-09-01T21:46:02.329Z,84.26
2018-09-01T21:48:38.324Z,84.11
2018-09-01T21:51:12.264Z,83.90
2018-09-01T21:53:53.676Z,83.72
2018-09-01T21:56:28.689Z,83.90
2018-09-01T21:59:05.536Z,83.88
2018-09-01T22:01:40.461Z,83.62
2018-09-01T22:04:15.222Z,83.24
2018-09-01T22:06:50.828Z,82.88
2018-09-01T22:09:26.242Z,82.31
2018-09-01T22:12:00.629Z,82.37
2018-09-01T22:14:34.514Z,82.83
2018-09-01T22:17:11.443Z,82.62
2018-09-01T22:19:43.960Z,81.94
2018-09-01T22:22:16.856Z,80.99
2018-09-01T22:24:55.381Z,80.23
2018-09-01T22:27:29.556Z,79.58
2018-09-01T22:30:03.498Z,78.96
2018-09-01T22:32:42.723Z,78.30
2018-09-01T22:35:21.878Z,77.69
2018-09-01T22:37:55.705Z,77.21
2018-09-01T22:40:31.176Z,76.82
2018-09-01T22:43:06.803Z,76.32
2018-09-01T22:45:40.348Z,75.96
2018-09-01T22:48:18.577Z,75.86
2018-09-01T22:50:58.640Z,75.93
2018-09-01T22:53:34.487Z,75.96
2018-09-01T22:56:08.792Z,75.85
2018-09-01T22:58:46.879Z,75.86
2018-09-01T23:01:27.164Z,75.70
2018-09-01T23:03:59.676Z,75.46
2018-09-01T23:06:32.293Z,75.35
2018-09-01T23:09:08.961Z,75.52
2018-09-01T23:11:52.189Z,75.61
2018-09-01T23:14:28.770Z,75.47
2018-09-01T23:17:03.105Z,75.37
2018-09-01T23:19:37.103Z,75.41
2018-09-01T23:22:18.069Z,75.85
2018-09-01T23:24:54.617Z,76.10
2018-09-01T23:27:28.061Z,76.25
2018-09-01T23:30:03.276Z,76.15
2018-09-01T23:32:39.734Z,76.45
2018-09-01T23:35:15.756Z,76.54
2018-09-01T23:37:49.404Z,76.53
2018-09-01T23:40:22.033Z,76.65
2018-09-01T23:42:54.600Z,76.86
2018-09-01T23:45:28.365Z,77.17
2018-09-01T23:48:01.860Z,77.61
2018-09-01T23:50:35.315Z,78.12
2018-09-01T23:53:07.959Z,78.25
2018-09-01T23:55:40.741Z,78.71
2018-09-01T23:58:13.261Z,78.87
